Time;durP1;ratioP1;P1;durP2;ratioP2;P2;SDS_P1;SDS_P2;PMS_P1;PMS_P2;Temp;Humidity;BMP_temperature;BMP_pressure;BME280_temperature;BME280_humidity;BME280_pressure;Samples;Min_cycle;Max_cycle;Signal;HPM_P1;HPM_P2
2021/08/12 00:01:55;;;;;;;10.43;6.10;;;;;;;17.25;73.57;100320.59;4995603;28;20077;-63
2021/08/12 00:04:39;;;;;;;8.05;5.63;;;;;;;17.25;73.77;100315.34;4995312;28;20088;-64
2021/08/12 00:07:23;;;;;;;9.27;6.07;;;;;;;17.26;73.77;100306.59;4995066;28;20101;-63
2021/08/12 00:10:07;;;;;;;8.48;5.55;;;;;;;17.24;73.75;100308.34;4980628;28;20065;-63
2021/08/12 00:12:51;;;;;;;10.10;6.25;;;;;;;17.24;73.66;100307.50;4994930;28;20096;-63
2021/08/12 00:15:38;;;;;;;9.02;5.75;;;;;;;17.23;73.67;100306.63;4995125;28;20425;-63
2021/08/12 00:18:22;;;;;;;9.90;6.60;;;;;;;17.23;73.51;100316.25;4994767;28;20049;-65
2021/08/12 00:21:06;;;;;;;;;;;;;;;17.18;73.46;100313.66;4980252;28;20429;-64
2021/08/12 00:23:52;;;;;;;7.80;5.88;;;;;;;17.20;73.42;100311.91;4995047;28;19928;-63
2021/08/12 00:26:36;;;;;;;9.23;6.57;;;;;;;17.18;73.53;100308.44;4994959;28;20134;-64
2021/08/12 00:29:22;;;;;;;10.07;6.53;;;;;;;17.18;73.65;100301.41;4980245;28;20049;-63
2021/08/12 00:32:07;;;;;;;8.15;6.03;;;;;;;17.17;73.71;100297.06;4993811;28;20426;-63
2021/08/12 00:34:51;;;;;;;12.45;6.28;;;;;;;17.18;73.74;100300.56;4994735;28;20108;-64
2021/08/12 00:37:37;;;;;;;8.50;7.03;;;;;;;17.18;73.85;100308.44;4994825;28;20562;-63
2021/08/12 00:40:28;;;;;;;12.38;7.25;;;;;;;17.18;73.66;100308.44;4979839;28;20045;-63
2021/08/12 00:43:15;;;;;;;12.77;7.00;;;;;;;17.22;73.81;100317.97;4980163;28;20105;-63
2021/08/12 00:45:59;;;;;;;12.18;7.85;;;;;;;17.21;73.70;100316.22;4994742;28;20048;-63
2021/08/12 00:48:43;;;;;;;16.92;8.68;;;;;;;17.23;73.75;100311.84;4979393;28;20060;-63
2021/08/12 00:51:31;;;;;;;13.95;8.73;;;;;;;17.22;73.65;100312.75;4994595;28;20061;-63
2021/08/12 00:54:16;;;;;;;11.18;8.25;;;;;;;17.23;73.81;100319.72;4994555;28;20097;-62
2021/08/12 00:57:02;;;;;;;19.02;8.65;;;;;;;17.24;73.89;100310.97;4994359;28;20571;-65
2021/08/12 00:59:46;;;;;;;16.92;8.35;;;;;;;17.24;73.67;100302.28;4979959;28;20128;-63
2021/08/12 01:02:30;;;;;;;;;;;;;;;17.22;73.69;100304.88;4994353;28;20061;-64
2021/08/12 01:05:19;;;;;;;17.27;9.10;;;;;;;17.22;73.67;100299.66;4994279;28;19940;-63
2021/08/12 01:08:19;;;;;;;12.82;8.50;;;;;;;17.22;73.85;100293.56;4994358;28;20101;-63
2021/08/12 01:11:24;;;;;;;14.07;9.00;;;;;;;17.22;73.78;100293.56;4979517;28;20073;-63
2021/08/12 01:14:17;;;;;;;15.70;9.35;;;;;;;17.23;73.34;100296.16;4979600;28;20512;-63
2021/08/12 01:17:06;;;;;;;14.93;9.17;;;;;;;17.23;73.70;100293.53;4979466;28;20100;-64
2021/08/12 01:20:14;;;;;;;13.07;8.80;;;;;;;17.22;73.61;100291.78;4993869;28;20065;-64
2021/08/12 01:22:59;;;;;;;17.92;8.13;;;;;;;17.24;73.80;100287.41;4945456;28;20053;-62
2021/08/12 01:25:51;;;;;;;15.10;9.23;;;;;;;17.24;73.75;100281.31;4979715;28;20189;-62
2021/08/12 01:28:43;;;;;;;15.70;9.38;;;;;;;17.23;73.73;100290.06;4994276;28;20568;-64
2021/08/12 01:31:51;;;;;;;13.13;9.20;;;;;;;17.23;73.87;100288.28;4979330;28;20146;-63
2021/08/12 01:35:20;;;;;;;20.30;9.15;;;;;;;17.23;73.79;100295.28;4994239;28;20100;-63
2021/08/12 01:38:08;;;;;;;14.45;8.50;;;;;;;17.22;74.03;100297.03;4970797;28;20056;-64
2021/08/12 01:40:54;;;;;;;16.02;8.68;;;;;;;17.22;73.83;100289.16;4993898;28;20077;-65
2021/08/12 01:43:39;;;;;;;17.70;9.82;;;;;;;17.23;74.00;100293.53;4980001;28;20084;-63
2021/08/12 01:46:25;;;;;;;16.58;9.30;;;;;;;17.21;73.89;100284.81;4983495;28;20085;-64
2021/08/12 01:49:09;;;;;;;16.27;8.93;;;;;;;17.20;73.99;100281.34;4982767;28;20101;-64
2021/08/12 01:51:54;;;;;;;13.13;9.20;;;;;;;17.18;73.81;100277.84;4983527;28;20398;-64
2021/08/12 01:54:41;;;;;;;14.85;9.18;;;;;;;17.18;73.85;100282.25;4997501;28;20044;-65
2021/08/12 01:57:29;;;;;;;12.63;8.60;;;;;;;17.17;73.80;100280.50;4997497;28;20054;-64
2021/08/12 02:00:14;;;;;;;14.18;8.75;;;;;;;17.16;73.90;100281.38;4997524;28;20053;-63
2021/08/12 02:02:59;;;;;;;13.27;8.60;;;;;;;17.16;74.08;100278.75;4997352;28;20456;-63
2021/08/12 02:05:45;;;;;;;14.93;9.10;;;;;;;17.13;73.72;100284.88;4982769;28;20053;-63
2021/08/12 02:08:30;;;;;;;17.70;9.77;;;;;;;17.14;73.89;100283.97;4982943;28;20581;-63
2021/08/12 02:11:17;;;;;;;16.63;11.32;;;;;;;17.15;73.90;100283.09;4997512;28;20122;-64
2021/08/12 02:14:03;;;;;;;18.73;11.15;;;;;;;17.15;73.99;100277.00;4982553;28;20137;-63
2021/08/12 02:16:47;;;;;;;17.45;11.50;;;;;;;17.16;73.86;100276.13;4983153;28;20136;-64
2021/08/12 02:19:32;;;;;;;15.52;11.30;;;;;;;17.17;73.59;100272.63;4996921;28;20185;-63
2021/08/12 02:22:29;;;;;;;18.35;11.80;;;;;;;17.16;73.89;100279.63;4997305;28;20050;-63
2021/08/12 02:25:28;;;;;;;16.08;11.70;;;;;;;17.16;73.94;100277.00;4982482;28;20101;-63
2021/08/12 02:28:13;;;;;;;15.18;10.70;;;;;;;17.17;74.15;100278.72;4996922;28;20089;-64
2021/08/12 02:30:59;;;;;;;17.35;10.63;;;;;;;17.18;73.85;100270.00;4996701;28;20073;-63
2021/08/12 02:33:46;;;;;;;15.25;10.10;;;;;;;17.18;74.20;100277.84;4982315;28;20065;-64
2021/08/12 02:36:30;;;;;;;12.77;9.60;;;;;;;17.18;74.04;100275.22;4982559;28;20053;-64
2021/08/12 02:39:15;;;;;;;13.75;10.55;;;;;;;17.18;74.02;100280.47;4997214;28;20099;-64
2021/08/12 02:42:02;;;;;;;15.85;10.02;;;;;;;17.17;74.32;100276.13;4982390;28;20053;-63
2021/08/12 02:44:47;;;;;;;14.25;10.55;;;;;;;17.16;74.22;100277.00;4982041;28;20053;-63
2021/08/12 02:47:32;;;;;;;15.82;10.45;;;;;;;17.16;74.06;100268.28;4997118;28;20077;-64
2021/08/12 02:50:17;;;;;;;15.20;10.40;;;;;;;17.15;74.10;100271.78;4996209;28;20045;-63
2021/08/12 02:53:01;;;;;;;14.20;10.65;;;;;;;17.13;74.20;100265.69;4996589;28;20069;-63
2021/08/12 02:55:47;;;;;;;18.38;10.50;;;;;;;17.12;73.95;100261.31;4995681;28;20054;-63
2021/08/12 02:58:32;;;;;;;13.30;9.75;;;;;;;17.11;74.30;100254.34;4982152;28;20073;-64
2021/08/12 03:01:18;;;;;;;16.25;10.23;;;;;;;17.10;74.11;100247.38;4981371;28;20054;-65
2021/08/12 03:04:04;;;;;;;14.20;9.75;;;;;;;17.11;74.14;100243.88;4982170;28;20046;-63
2021/08/12 03:06:53;;;;;;;11.70;9.35;;;;;;;17.09;74.11;100246.50;4996201;28;20085;-64
2021/08/12 03:09:38;;;;;;;12.35;9.32;;;;;;;17.11;74.11;100256.97;4981719;28;20105;-64
2021/08/12 03:12:25;;;;;;;14.65;10.25;;;;;;;17.10;74.14;100261.34;4982034;28;20069;-63
2021/08/12 03:15:11;;;;;;;17.35;9.45;;;;;;;17.10;74.15;100261.34;4981165;28;20124;-64
2021/08/12 03:17:58;;;;;;;12.10;9.15;;;;;;;17.10;74.50;100263.97;4981668;28;20105;-63
2021/08/12 03:20:45;;;;;;;11.90;8.48;;;;;;;17.10;74.21;100257.84;4981100;28;20049;-64
2021/08/12 03:23:28;;;;;;;12.43;8.18;;;;;;;17.09;74.17;100261.34;4981176;28;20101;-64
2021/08/12 03:26:13;;;;;;;11.70;9.20;;;;;;;17.09;74.45;100256.09;4996249;28;20120;-63
2021/08/12 03:28:57;;;;;;;;;;;;;;;17.08;74.23;100254.38;4981788;28;20144;-64
2021/08/12 03:31:41;;;;;;;11.52;8.07;;;;;;;17.06;74.22;100257.00;4996258;28;19920;-64
2021/08/12 03:34:25;;;;;;;12.20;8.52;;;;;;;17.07;74.20;100260.47;4981351;28;20203;-63
2021/08/12 03:37:11;;;;;;;10.63;7.95;;;;;;;17.07;74.28;100256.13;4995654;28;20103;-63
2021/08/12 03:39:58;;;;;;;10.82;7.43;;;;;;;17.06;74.18;100257.00;4996178;28;20101;-64
2021/08/12 03:42:42;;;;;;;11.63;7.85;;;;;;;17.05;74.27;100256.13;4995759;28;20081;-63
2021/08/12 03:45:26;;;;;;;11.25;6.72;;;;;;;17.04;74.20;100254.41;4995502;28;20053;-63
2021/08/12 03:48:10;;;;;;;10.65;7.88;;;;;;;17.05;74.33;100263.97;4980857;28;20045;-63
2021/08/12 03:50:54;;;;;;;12.82;7.85;;;;;;;17.04;74.37;100259.66;4980685;28;20130;-64
2021/08/12 03:53:41;;;;;;;11.43;8.43;;;;;;;17.04;74.23;100264.00;4995811;28;20126;-63
2021/08/12 03:56:27;;;;;;;11.32;7.30;;;;;;;17.02;74.31;100252.66;4995680;28;20162;-63
2021/08/12 03:59:12;;;;;;;14.10;8.52;;;;;;;17.02;74.12;100256.16;4995229;28;20161;-63
2021/08/12 04:01:59;;;;;;;15.23;8.48;;;;;;;17.02;74.31;100263.13;4980524;28;20081;-63
2021/08/12 04:04:43;;;;;;;10.48;7.28;;;;;;;17.01;74.09;100257.03;4995443;28;20142;-63
2021/08/12 04:07:29;;;;;;;9.85;7.80;;;;;;;17.00;74.31;100265.78;4980454;28;20416;-64
2021/08/12 04:10:13;;;;;;;12.90;8.68;;;;;;;17.00;74.36;100263.16;4995528;28;20402;-63
2021/08/12 04:12:59;;;;;;;16.30;8.75;;;;;;;17.00;74.33;100268.41;4980510;28;20130;-64
2021/08/12 04:15:46;;;;;;;10.05;8.35;;;;;;;17.00;74.40;100259.66;4995108;28;20053;-64
2021/08/12 04:18:31;;;;;;;10.18;8.05;;;;;;;16.99;74.26;100258.81;4980452;28;20053;-64
2021/08/12 04:21:14;;;;;;;11.85;7.85;;;;;;;17.00;74.26;100260.53;4994689;28;20563;-64
2021/08/12 04:23:58;;;;;;;12.88;8.63;;;;;;;17.00;74.39;100267.50;4994814;28;20113;-63
2021/08/12 04:26:45;;;;;;;12.07;7.40;;;;;;;17.00;74.53;100271.00;4994920;28;20085;-63
2021/08/12 04:29:29;;;;;;;13.00;8.48;;;;;;;17.00;74.53;100278.88;4980215;28;20113;-63
2021/08/12 04:32:13;;;;;;;11.32;7.78;;;;;;;16.99;74.34;100271.88;4994725;28;20048;-63
2021/08/12 04:34:58;;;;;;;13.38;8.18;;;;;;;16.99;74.41;100277.13;4995148;28;20049;-64
2021/08/12 04:37:44;;;;;;;11.30;8.43;;;;;;;16.99;74.42;100274.50;4980193;28;20089;-63
2021/08/12 04:40:28;;;;;;;13.27;8.48;;;;;;;17.01;74.26;100279.72;4979616;28;20104;-63
2021/08/12 04:43:12;;;;;;;11.50;8.05;;;;;;;17.01;74.48;100284.97;4994926;28;20085;-64
2021/08/12 04:45:56;;;;;;;12.25;7.72;;;;;;;17.01;74.40;100274.47;4994729;28;20089;-64
2021/08/12 04:48:40;;;;;;;14.05;7.63;;;;;;;17.02;74.32;100278.84;4994484;28;20093;-63
2021/08/12 04:51:30;;;;;;;12.93;6.90;;;;;;;17.03;74.53;100277.97;4979770;28;20057;-64
2021/08/12 04:54:16;;;;;;;12.82;7.65;;;;;;;17.03;74.42;100275.34;4979768;28;20064;-63
2021/08/12 04:57:00;;;;;;;9.75;6.78;;;;;;;17.02;74.54;100287.59;4994385;28;20049;-64
2021/08/12 04:59:44;;;;;;;10.10;7.63;;;;;;;17.03;74.61;100278.84;4993833;28;20529;-65
2021/08/12 05:02:28;;;;;;;11.30;7.82;;;;;;;17.03;74.46;100277.97;4994295;28;20133;-63
2021/08/12 05:05:12;;;;;;;15.55;7.28;;;;;;;17.03;74.50;100278.84;4994264;28;20134;-63
2021/08/12 05:07:56;;;;;;;10.43;7.43;;;;;;;17.03;74.57;100270.09;4979079;28;20072;-65
2021/08/12 05:10:47;;;;;;;13.98;7.63;;;;;;;17.03;74.59;100276.22;4994327;28;20069;-64
2021/08/12 05:13:33;;;;;;;8.45;7.18;;;;;;;17.04;74.74;100269.22;4994158;28;20057;-64
2021/08/12 05:16:18;;;;;;;10.95;7.32;;;;;;;17.04;74.70;100288.44;4994192;28;20055;-64
2021/08/12 05:19:02;;;;;;;12.25;7.65;;;;;;;17.05;74.72;100284.91;4979205;28;20522;-63
2021/08/12 05:21:48;;;;;;;;;;;;;;;17.04;74.72;100279.69;4979753;28;20104;-65
2021/08/12 05:24:32;;;;;;;9.35;7.07;;;;;;;17.05;74.46;100276.22;4994391;28;19940;-64
2021/08/12 05:27:17;;;;;;;11.20;7.10;;;;;;;17.05;74.70;100282.31;4994203;28;20148;-63
2021/08/12 05:30:01;;;;;;;11.00;7.22;;;;;;;17.04;74.63;100272.75;4994208;28;20104;-63
2021/08/12 05:32:47;;;;;;;13.63;7.65;;;;;;;17.07;74.77;100266.59;4993990;28;20109;-63
2021/08/12 05:35:31;;;;;;;10.93;6.78;;;;;;;17.07;74.89;100269.22;4979613;28;20528;-63
2021/08/12 05:38:16;;;;;;;;;;;;;;;17.05;74.78;100270.97;4994719;28;20046;-63
2021/08/12 05:41:03;;;;;;;10.85;7.70;;;;;;;17.05;75.05;100261.34;4993583;28;19925;-65
2021/08/12 05:43:49;;;;;;;10.90;7.13;;;;;;;17.07;74.84;100261.34;4994363;28;20470;-64
2021/08/12 05:46:33;;;;;;;9.18;7.20;;;;;;;17.07;74.55;100261.34;4979423;28;20089;-64
2021/08/12 05:49:22;;;;;;;10.88;7.72;;;;;;;17.08;74.87;100260.47;4993590;28;20520;-63
2021/08/12 05:52:06;;;;;;;8.60;7.30;;;;;;;17.08;75.08;100256.97;4979669;28;20053;-64
2021/08/12 05:54:50;;;;;;;8.45;7.00;;;;;;;17.10;74.79;100256.09;4978765;28;20548;-64
2021/08/12 05:57:34;;;;;;;8.77;6.90;;;;;;;17.11;75.13;100257.84;4994146;28;20053;-64
2021/08/12 06:00:18;;;;;;;13.35;7.28;;;;;;;17.12;75.01;100262.22;4993910;28;20045;-64
2021/08/12 06:03:10;;;;;;;13.73;7.53;;;;;;;17.14;74.89;100268.28;4993386;28;20146;-63
2021/08/12 06:05:58;;;;;;;10.18;7.03;;;;;;;17.15;74.96;100263.94;4979016;28;20138;-64
2021/08/12 06:08:44;;;;;;;10.80;6.97;;;;;;;17.16;74.96;100266.50;4978764;28;20569;-63
2021/08/12 06:11:28;;;;;;;8.38;6.82;;;;;;;17.15;74.95;100267.41;4994001;28;20049;-64
2021/08/12 06:14:12;;;;;;;12.50;7.05;;;;;;;17.17;75.12;100275.25;4978809;28;20065;-63
2021/08/12 06:16:58;;;;;;;9.40;6.63;;;;;;;17.18;74.82;100280.47;4978791;28;20077;-64
2021/08/12 06:19:42;;;;;;;11.13;7.20;;;;;;;17.18;75.00;100275.22;4993750;28;20394;-64
2021/08/12 06:22:29;;;;;;;9.07;6.78;;;;;;;17.19;74.88;100278.75;4979006;28;20473;-64
2021/08/12 06:25:13;;;;;;;10.07;6.90;;;;;;;17.20;75.16;100273.47;4993924;28;20041;-63
2021/08/12 06:27:57;;;;;;;;;;;;;;;17.20;75.05;100281.34;4993736;28;20061;-62
2021/08/12 06:30:41;;;;;;;11.15;7.00;;;;;;;17.18;74.95;100277.00;4993912;28;19920;-64
2021/08/12 06:33:25;;;;;;;8.30;6.50;;;;;;;17.20;75.04;100264.75;4996979;28;20139;-63
2021/08/12 06:36:09;;;;;;;9.75;7.03;;;;;;;17.21;74.70;100266.47;4997340;28;20128;-64
2021/08/12 06:38:59;;;;;;;10.48;6.45;;;;;;;17.24;75.02;100273.47;4997059;28;20138;-63
2021/08/12 06:41:43;;;;;;;9.20;6.22;;;;;;;17.23;75.09;100269.97;4982469;28;20588;-64
2021/08/12 06:44:29;;;;;;;9.20;6.75;;;;;;;17.25;74.93;100270.81;4996979;28;20104;-64
2021/08/12 06:47:13;;;;;;;9.00;7.30;;;;;;;17.25;74.87;100269.97;4982377;28;20045;-64
2021/08/12 06:49:57;;;;;;;9.25;6.50;;;;;;;17.26;74.82;100271.69;4981779;28;20054;-63
2021/08/12 06:52:41;;;;;;;8.30;6.93;;;;;;;17.26;74.72;100272.56;4982260;28;20053;-64
2021/08/12 06:55:26;;;;;;;9.73;6.35;;;;;;;17.27;74.95;100276.06;4982044;28;20457;-63
2021/08/12 06:58:09;;;;;;;7.80;6.13;;;;;;;17.28;75.19;100269.94;4996574;28;20457;-63
2021/08/12 07:00:53;;;;;;;8.73;6.47;;;;;;;17.28;74.90;100276.03;4996537;28;20054;-63
2021/08/12 07:03:37;;;;;;;8.32;5.15;;;;;;;17.29;74.86;100271.66;4997255;28;20410;-64
2021/08/12 07:06:21;;;;;;;8.82;6.05;;;;;;;17.30;74.92;100276.00;4981742;28;20104;-64
2021/08/12 07:09:05;;;;;;;7.88;5.93;;;;;;;17.31;75.05;100278.63;4996787;28;20057;-64
2021/08/12 07:11:52;;;;;;;7.68;5.50;;;;;;;17.32;74.74;100283.00;4996668;28;20617;-64
2021/08/12 07:14:36;;;;;;;8.15;6.05;;;;;;;17.35;74.86;100282.09;4996355;28;20057;-63
2021/08/12 07:17:20;;;;;;;10.02;7.03;;;;;;;17.38;74.80;100294.28;4996021;28;20410;-64
2021/08/12 07:20:05;;;;;;;8.90;6.60;;;;;;;17.40;75.02;100287.28;4996397;28;20441;-64
2021/08/12 07:22:49;;;;;;;8.48;6.82;;;;;;;17.42;74.97;100294.28;4981489;28;20096;-63
2021/08/12 07:25:33;;;;;;;10.20;6.85;;;;;;;17.43;75.06;100297.75;4995945;28;20049;-63
2021/08/12 07:28:17;;;;;;;8.27;6.70;;;;;;;17.45;74.86;100299.47;4995860;28;20410;-64
2021/08/12 07:31:01;;;;;;;8.90;6.88;;;;;;;17.47;74.80;100302.09;4981459;28;20429;-64
2021/08/12 07:33:45;;;;;;;7.88;7.03;;;;;;;17.48;75.16;100298.59;4995951;28;20074;-63
2021/08/12 07:36:29;;;;;;;11.02;7.82;;;;;;;17.49;75.04;100295.94;4995629;28;20049;-63
2021/08/12 07:39:15;;;;;;;11.90;8.20;;;;;;;17.53;75.06;100295.91;4980988;28;20134;-64
2021/08/12 07:41:59;;;;;;;12.48;7.25;;;;;;;17.53;75.10;100303.78;4980888;28;20096;-64
2021/08/12 07:44:46;;;;;;;9.85;7.13;;;;;;;17.53;75.09;100301.16;4981232;28;20065;-64
2021/08/12 07:47:32;;;;;;;9.27;6.50;;;;;;;17.55;75.26;100312.50;4996195;28;20049;-64
2021/08/12 07:50:18;;;;;;;11.95;7.55;;;;;;;17.56;75.11;100314.25;4995954;28;20065;-64
2021/08/12 07:53:02;;;;;;;10.48;7.72;;;;;;;17.57;74.94;100311.59;4980613;28;20441;-65
2021/08/12 07:55:46;;;;;;;9.75;7.13;;;;;;;17.58;75.21;100315.97;4995727;28;20053;-64
2021/08/12 07:58:31;;;;;;;13.05;7.13;;;;;;;17.60;75.16;100311.56;4995280;28;20085;-64
2021/08/12 08:01:16;;;;;;;12.32;6.90;;;;;;;17.61;75.16;100315.06;4995032;28;20049;-64
2021/08/12 08:04:02;;;;;;;9.60;7.28;;;;;;;17.62;75.21;100319.41;4995812;28;20045;-64
2021/08/12 08:06:46;;;;;;;10.93;7.70;;;;;;;17.63;75.08;100322.03;4980793;28;20127;-64
2021/08/12 08:09:30;;;;;;;9.60;5.88;;;;;;;17.64;75.31;100309.78;4980911;28;20053;-64
2021/08/12 08:12:14;;;;;;;10.60;6.95;;;;;;;17.63;74.94;100308.94;4995364;28;20089;-63
2021/08/12 08:15:01;;;;;;;8.95;6.55;;;;;;;17.64;74.90;100315.03;4995269;28;20134;-65
2021/08/12 08:17:45;;;;;;;10.88;6.40;;;;;;;17.65;75.09;100322.00;4980634;28;20057;-64
2021/08/12 08:20:32;;;;;;;11.25;7.50;;;;;;;17.66;74.96;100318.50;4980371;28;20397;-64
2021/08/12 08:23:17;;;;;;;7.95;6.78;;;;;;;17.66;74.97;100323.75;4980580;28;20601;-65
2021/08/12 08:26:01;;;;;;;9.90;7.40;;;;;;;17.68;75.05;100321.09;4994661;28;20096;-63
2021/08/12 08:28:47;;;;;;;9.20;6.05;;;;;;;17.69;74.90;100314.97;4994730;28;20053;-64
2021/08/12 08:31:32;;;;;;;8.77;5.95;;;;;;;17.69;75.10;100326.34;4994988;28;20073;-64
2021/08/12 08:34:15;;;;;;;8.48;6.32;;;;;;;17.70;74.74;100325.47;4994928;28;20049;-65
2021/08/12 08:37:00;;;;;;;8.70;6.47;;;;;;;17.71;75.02;100323.72;4995015;28;20130;-63
2021/08/12 08:39:46;;;;;;;8.55;6.22;;;;;;;17.72;75.24;100333.31;4994817;28;20069;-64
2021/08/12 08:42:32;;;;;;;8.57;6.53;;;;;;;17.72;75.05;100328.94;4994463;28;20121;-64
2021/08/12 08:45:26;;;;;;;9.90;7.15;;;;;;;17.73;74.96;100320.22;4979734;28;20053;-65
2021/08/12 08:48:15;;;;;;;9.77;6.47;;;;;;;17.74;75.08;100326.31;4994511;28;20046;-63
2021/08/12 08:51:01;;;;;;;11.50;6.65;;;;;;;17.75;74.93;100331.53;4994451;28;20049;-64
2021/08/12 08:53:46;;;;;;;10.98;6.28;;;;;;;17.77;74.88;100328.91;4993314;28;20053;-64
2021/08/12 08:56:31;;;;;;;10.38;6.30;;;;;;;17.78;75.27;100330.66;4979889;28;20049;-64
2021/08/12 08:59:15;;;;;;;7.40;6.13;;;;;;;17.79;74.94;100329.75;4980078;28;20108;-64
2021/08/12 09:02:01;;;;;;;10.57;6.88;;;;;;;17.80;75.07;100329.75;4993998;28;20064;-64
2021/08/12 09:04:45;;;;;;;8.43;6.18;;;;;;;17.81;75.01;100333.25;4979872;28;20053;-64
2021/08/12 09:07:32;;;;;;;7.85;5.57;;;;;;;17.83;74.90;100333.22;4994807;28;20096;-64
2021/08/12 09:10:17;;;;;;;10.57;7.00;;;;;;;17.84;74.96;100332.34;4994188;28;20552;-63
2021/08/12 09:13:01;;;;;;;8.18;6.50;;;;;;;17.84;75.05;100335.81;4979585;28;20513;-63
2021/08/12 09:15:45;;;;;;;8.88;6.32;;;;;;;17.86;75.03;100334.06;4994297;28;20076;-63
2021/08/12 09:18:29;;;;;;;11.63;6.22;;;;;;;17.87;75.05;100334.94;4979317;28;20544;-62
2021/08/12 09:21:20;;;;;;;8.48;6.50;;;;;;;17.88;74.94;100328.81;4979659;28;20142;-63
2021/08/12 09:24:07;;;;;;;12.35;5.93;;;;;;;17.88;74.84;100324.41;4993808;28;20597;-63
2021/08/12 09:26:51;;;;;;;8.18;6.15;;;;;;;17.89;74.88;100322.69;4979033;28;20113;-64
2021/08/12 09:29:38;;;;;;;7.53;6.13;;;;;;;17.90;74.91;100317.41;4994137;28;20048;-64
2021/08/12 09:32:22;;;;;;;8.50;6.30;;;;;;;17.90;74.90;100312.16;4994230;28;20089;-64
2021/08/12 09:35:07;;;;;;;10.13;6.63;;;;;;;17.93;74.82;100308.63;4979603;28;20068;-64
2021/08/12 09:37:52;;;;;;;8.02;6.47;;;;;;;17.94;74.86;100308.66;4979475;28;20592;-64
2021/08/12 09:40:37;;;;;;;10.40;5.70;;;;;;;17.96;74.83;100313.84;4979319;28;20053;-63
2021/08/12 09:43:21;;;;;;;;;;;;;;;17.97;74.84;100315.59;4994229;28;20068;-64
2021/08/12 09:46:08;;;;;;;7.10;5.40;;;;;;;17.98;74.79;100300.78;4979520;28;19964;-64
2021/08/12 09:48:58;;;;;;;7.72;5.57;;;;;;;18.00;74.69;100299.88;4993424;28;20049;-64
2021/08/12 09:51:42;;;;;;;8.35;5.18;;;;;;;18.02;74.75;100305.09;4993720;28;20049;-65
2021/08/12 09:54:30;;;;;;;9.07;5.20;;;;;;;18.03;74.73;100298.97;4979397;28;20053;-65
2021/08/12 09:57:21;;;;;;;7.10;5.45;;;;;;;18.05;74.78;100308.56;4979252;28;20076;-65
2021/08/12 10:00:10;;;;;;;7.45;5.25;;;;;;;18.06;74.87;100298.94;4994004;28;20517;-64
2021/08/12 10:02:54;;;;;;;6.22;5.15;;;;;;;18.07;74.79;100312.00;4993585;28;20057;-63
2021/08/12 10:05:40;;;;;;;6.57;5.10;;;;;;;18.08;74.67;100299.78;4995836;28;20041;-64
2021/08/12 10:08:38;;;;;;;6.88;5.25;;;;;;;18.10;74.66;100300.66;4997863;28;20092;-63
2021/08/12 10:11:28;;;;;;;6.43;5.18;;;;;;;18.11;74.65;100299.75;4983049;28;20053;-64
2021/08/12 10:14:12;;;;;;;7.47;5.10;;;;;;;18.13;74.67;100292.75;4997401;28;20525;-64
2021/08/12 10:16:56;;;;;;;6.68;5.50;;;;;;;18.14;74.57;100291.84;4997768;28;20223;-64
2021/08/12 10:19:42;;;;;;;8.18;5.20;;;;;;;18.17;74.62;100293.56;4982242;28;20057;-64
2021/08/12 10:22:30;;;;;;;9.00;5.75;;;;;;;18.18;74.55;100290.91;4997333;28;20049;-63
2021/08/12 10:25:19;;;;;;;9.15;5.63;;;;;;;18.20;74.41;100289.16;4982411;28;20065;-64
2021/08/12 10:28:08;;;;;;;9.18;5.13;;;;;;;18.22;74.47;100294.38;4983109;28;20126;-64
2021/08/12 10:30:53;;;;;;;6.65;5.10;;;;;;;18.24;74.40;100284.72;4997193;28;20053;-65
2021/08/12 10:33:41;;;;;;;13.05;5.60;;;;;;;18.24;74.61;100285.63;4982636;28;20443;-64
2021/08/12 10:36:25;;;;;;;7.30;5.55;;;;;;;18.25;74.40;100282.09;4982823;28;20117;-63
2021/08/12 10:39:13;;;;;;;11.25;5.15;;;;;;;18.27;74.30;100276.81;4997115;28;20049;-64
2021/08/12 10:41:57;;;;;;;7.72;4.63;;;;;;;18.28;74.18;100280.34;4996812;28;20053;-65
2021/08/12 10:44:42;;;;;;;6.65;4.32;;;;;;;18.28;74.14;100275.94;4996417;28;20049;-64
2021/08/12 10:47:44;;;;;;;7.15;4.93;;;;;;;18.30;74.18;100281.16;4982355;28;20105;-64
2021/08/12 10:50:34;;;;;;;5.88;4.75;;;;;;;18.30;74.15;100284.66;4981851;28;20136;-64
2021/08/12 10:53:19;;;;;;;7.05;4.82;;;;;;;18.31;73.93;100275.03;4996733;28;20560;-64
2021/08/12 10:56:28;;;;;;;12.85;5.38;;;;;;;18.32;74.06;100277.66;4982217;28;20585;-63
2021/08/12 10:59:14;;;;;;;6.05;5.15;;;;;;;18.33;74.03;100271.53;4992820;28;20057;-65
2021/08/12 11:01:59;;;;;;;7.95;4.90;;;;;;;18.36;73.90;100274.13;4996487;28;20545;-65
2021/08/12 11:04:53;;;;;;;6.70;4.90;;;;;;;18.38;74.05;100274.94;4981924;28;20069;-64
2021/08/12 11:07:37;;;;;;;6.15;4.65;;;;;;;18.39;73.95;100268.81;4995983;28;20192;-64
2021/08/12 11:10:22;;;;;;;7.95;5.00;;;;;;;18.40;73.93;100273.16;4996408;28;20057;-65
2021/08/12 11:13:07;;;;;;;7.90;4.85;;;;;;;18.40;73.91;100261.81;4995988;28;20105;-65
2021/08/12 11:15:50;;;;;;;7.28;5.10;;;;;;;18.41;73.84;100267.03;4995849;28;20121;-64
2021/08/12 11:18:55;;;;;;;5.65;4.45;;;;;;;18.42;73.80;100266.16;4995863;28;20093;-64
2021/08/12 11:21:41;;;;;;;7.35;4.65;;;;;;;18.46;73.76;100261.72;4996123;28;20406;-65
2021/08/12 11:24:25;;;;;;;6.75;5.00;;;;;;;18.47;73.51;100258.22;4981682;28;20513;-64
2021/08/12 11:27:09;;;;;;;8.40;4.97;;;;;;;18.50;73.91;100252.91;4995837;28;20104;-64
2021/08/12 11:29:53;;;;;;;7.05;4.85;;;;;;;18.50;73.70;100258.16;4981155;28;20572;-65
2021/08/12 11:32:57;;;;;;;8.48;5.00;;;;;;;18.53;73.77;100262.53;4996321;28;20481;-64
2021/08/12 11:36:06;;;;;;;5.65;4.80;;;;;;;18.52;73.59;100256.41;4995746;28;20053;-64
2021/08/12 11:38:52;;;;;;;7.72;5.25;;;;;;;18.53;73.71;100258.13;4995670;28;20524;-64
2021/08/12 11:41:38;;;;;;;9.25;5.65;;;;;;;18.54;73.46;100259.00;4980987;28;20077;-64
2021/08/12 11:44:21;;;;;;;8.30;5.07;;;;;;;18.55;73.54;100264.25;4981465;28;20077;-64
2021/08/12 11:47:11;;;;;;;8.23;5.43;;;;;;;18.58;73.58;100265.94;4981292;28;20116;-64
2021/08/12 11:49:57;;;;;;;8.90;5.47;;;;;;;18.61;73.28;100270.31;4981111;28;20097;-64
2021/08/12 11:52:49;;;;;;;8.80;5.65;;;;;;;18.61;73.21;100265.91;4981180;28;20068;-63
2021/08/12 11:55:36;;;;;;;8.57;5.82;;;;;;;18.63;73.34;100269.38;4995591;28;20049;-64
2021/08/12 11:58:22;;;;;;;9.57;6.05;;;;;;;18.64;73.37;100265.88;4980746;28;20521;-64
2021/08/12 12:01:10;;;;;;;9.55;6.07;;;;;;;18.65;73.18;100267.59;4995107;28;20045;-65
2021/08/12 12:04:08;;;;;;;11.25;6.53;;;;;;;18.67;72.92;100268.47;4980489;28;20122;-64
2021/08/12 12:06:53;;;;;;;10.60;6.45;;;;;;;18.71;73.04;100269.28;4995352;28;20053;-64
2021/08/12 12:09:36;;;;;;;9.23;6.60;;;;;;;18.75;73.11;100264.84;4995623;28;20093;-64
2021/08/12 12:12:25;;;;;;;11.25;6.35;;;;;;;18.77;73.17;100263.06;4995538;28;20059;-64
2021/08/12 12:15:12;;;;;;;8.65;5.55;;;;;;;18.79;73.03;100259.53;4980969;28;20462;-64
2021/08/12 12:17:56;;;;;;;15.82;6.95;;;;;;;18.81;72.87;100268.25;4980392;28;20057;-63
2021/08/12 12:20:45;;;;;;;10.05;6.32;;;;;;;18.83;72.96;100266.47;4980247;28;20402;-65
2021/08/12 12:23:31;;;;;;;9.88;6.32;;;;;;;18.86;72.83;100262.91;4980477;28;20053;-64
2021/08/12 12:26:24;;;;;;;11.32;6.20;;;;;;;18.86;72.93;100266.44;4995192;28;20049;-63
2021/08/12 12:29:12;;;;;;;10.77;6.43;;;;;;;18.88;72.92;100263.78;4994207;28;20093;-63
2021/08/12 12:31:57;;;;;;;12.52;7.72;;;;;;;18.89;72.88;100267.28;4994881;28;20053;-63
2021/08/12 12:34:53;;;;;;;11.65;6.68;;;;;;;18.92;72.94;100265.47;4980072;28;20050;-63
2021/08/12 12:37:41;;;;;;;14.38;7.38;;;;;;;18.95;73.07;100264.56;4994553;28;20524;-63
2021/08/12 12:40:32;;;;;;;11.98;6.75;;;;;;;18.97;73.07;100273.31;4994863;28;20049;-64
2021/08/12 12:43:16;;;;;;;10.70;7.07;;;;;;;18.98;72.93;100267.16;4994743;28;20045;-64
2021/08/12 12:46:00;;;;;;;12.20;6.90;;;;;;;19.00;72.84;100268.00;4980140;28;20133;-65
2021/08/12 12:48:49;;;;;;;12.73;7.20;;;;;;;19.02;72.74;100266.22;4994507;28;20053;-63
2021/08/12 12:51:36;;;;;;;11.70;6.40;;;;;;;19.01;72.90;100264.50;4994443;28;20061;-65